WetterOnline ( http://www.wetteronline.de )

Wetter aktuell Meinheim

Aktuelles Wetter: Weißenburg (424m)

6-stündlich | Neueste Meldungen
Ortszeit Temperatur Wetter
Mo, 25.03. 1:00 6.6° C bewölkt
So, 24.03. 19:00 8.2° C wolkenlos
So, 24.03. 13:00 13.9° C wolkenlos
So, 24.03. 7:00 0.6° C wolkenlos
So, 24.03. 1:00 3.5° C wolkenlos
Sa, 23.03. 19:00 13.7° C wolkenlos
Sa, 23.03. 13:00 16.6° C wolkenlos
Sa, 23.03. 7:00 0.7° C wolkig
Ortszeit Temperatur Wetter
Mo, 25.03. 6:00 1.9° C leicht bewölkt
Mo, 25.03. 5:50 1.9° C leicht bewölkt
Mo, 25.03. 5:40 2.2° C wolkenlos
Mo, 25.03. 5:30 2.5° C wolkenlos
Mo, 25.03. 5:20 2.5° C wolkenlos
Mo, 25.03. 5:10 2.9° C wolkenlos
Mo, 25.03. 5:00 3.4° C fast wolkenlos
Mo, 25.03. 4:30 3.9° C leicht bewölkt
Mo, 25.03. 4:00 4.7° C leicht bewölkt
Mo, 25.03. 3:30 5.6° C wolkig
Mo, 25.03. 3:00 6.2° C bedeckt
Ortszeit Relative Feuchte Sichtweite
Mo, 25.03. 1:00 87% 4.9 km
So, 24.03. 19:00 81% 4.8 km
So, 24.03. 13:00 63% 5.0 km
So, 24.03. 7:00 100% 1.4 km
So, 24.03. 1:00 86% 8 km
Sa, 23.03. 19:00 47% 11 km
Sa, 23.03. 13:00 40% 12 km
Sa, 23.03. 7:00 93% 10 km
Ortszeit Relative Feuchte Sichtweite
Mo, 25.03. 6:00 83% 14 km
Mo, 25.03. 5:50 83% -
Mo, 25.03. 5:40 83% -
Mo, 25.03. 5:30 82% 11 km
Mo, 25.03. 5:20 82% -
Mo, 25.03. 5:10 81% -
Mo, 25.03. 5:00 82% 10 km
Mo, 25.03. 4:30 82% 9 km
Mo, 25.03. 4:00 82% 9 km
Mo, 25.03. 3:30 80% 9 km
Mo, 25.03. 3:00 84% 8 km
Ortszeit Niederschlagsmenge Niederschlagsart
Mo, 25.03. 1:00 0.0 l/m2 in 6 Std. -
So, 24.03. 19:00 0.0 l/m2 in 12 Std. -
So, 24.03. 13:00 0.0 l/m2 in 6 Std. -
So, 24.03. 7:00 0.0 l/m2 in 12 Std. -
So, 24.03. 1:00 0.0 l/m2 in 6 Std. -
Sa, 23.03. 19:00 0.0 l/m2 in 12 Std. -
Sa, 23.03. 13:00 0.0 l/m2 in 6 Std. -
Sa, 23.03. 7:00 0.0 l/m2 in 12 Std. -
Ortszeit Niederschlagsmenge Niederschlagsart
Mo, 25.03. 6:00 0.0 l/m2 in 1 Std. -
Mo, 25.03. 5:50 keine Meldung -
Mo, 25.03. 5:40 keine Meldung -
Mo, 25.03. 5:30 0.0 l/m2 in 1 Std. -
Mo, 25.03. 5:20 keine Meldung -
Mo, 25.03. 5:10 keine Meldung -
Mo, 25.03. 5:00 0.0 l/m2 in 1 Std. -
Mo, 25.03. 4:30 0.0 l/m2 in 1 Std. -
Mo, 25.03. 4:00 0.0 l/m2 in 1 Std. -
Mo, 25.03. 3:30 0.0 l/m2 in 1 Std. -
Mo, 25.03. 3:00 0.0 l/m2 in 1 Std. -
Ortszeit Stärke Spitze Richtung
km/h Bft. km/h Grad Sektor
Mo, 25.03. 1:00 9 2 15 290° W
So, 24.03. 19:00 13 3 39 320° NW
So, 24.03. 13:00 6 1 13 350° N
So, 24.03. 7:00 4 1 7 190° S
So, 24.03. 1:00 7 2 14 210° SW
Sa, 23.03. 19:00 9 2 22 300° NW
Sa, 23.03. 13:00 4 1 18 70° O
Sa, 23.03. 7:00 11 2 18 200° S
Ortszeit Stärke Spitze Richtung
km/h Bft. km/h Grad Sektor
Mo, 25.03. 6:00 13 3 19 300° NW
Mo, 25.03. 5:50 13 3 - 300° NW
Mo, 25.03. 5:40 13 3 - 300° NW
Mo, 25.03. 5:30 11 2 18 290° W
Mo, 25.03. 5:20 11 2 - 290° W
Mo, 25.03. 5:10 13 3 - 290° W
Mo, 25.03. 5:00 13 3 22 290° W
Mo, 25.03. 4:30 15 3 22 290° W
Mo, 25.03. 4:00 14 3 22 290° W
Mo, 25.03. 3:30 14 3 22 290° W
Mo, 25.03. 3:00 11 2 18 300° NW
Ortszeit Untergrenze Bedeckung Gattung
total tief tief mittel hoch
Mo, 25.03. 1:00 1380 m 7/8 7/8 - - -
So, 24.03. 19:00 - 0/8 0/8 - - -
So, 24.03. 13:00 - 0/8 0/8 - - -
So, 24.03. 7:00 - 0/8 0/8 - - -
So, 24.03. 1:00 - 0/8 0/8 - - -
Sa, 23.03. 19:00 - 0/8 0/8 - - -
Sa, 23.03. 13:00 - 0/8 0/8 - - -
Sa, 23.03. 7:00 10500 m 8/8 0/8 - - -
Ortszeit Bedeckungsgrad in Achtel und Wolkenuntergrenze
Mo, 25.03. 6:00 3(1800m)
Mo, 25.03. 5:50 3(1800m)
Mo, 25.03. 5:40 keine Wolken
Mo, 25.03. 5:30 keine Wolken
Mo, 25.03. 5:20 keine Wolken
Mo, 25.03. 5:10 keine Wolken
Mo, 25.03. 5:00 1(1500m)
Mo, 25.03. 4:30 4(1500m)
Mo, 25.03. 4:00 1(1020m) 2(1500m)
Mo, 25.03. 3:30 5(1500m)
Mo, 25.03. 3:00 8(1500m)
Ortszeit Luftdruck NN (hPa) Tendenz (hPa in 3 Std.)
Mo, 25.03. 1:00 1022 - 0,7
So, 24.03. 19:00 1023 + 1,1
So, 24.03. 13:00 1022 - 1,9
So, 24.03. 7:00 1027 - 0,4
So, 24.03. 1:00 1028 - 0,9
Sa, 23.03. 19:00 1026 + 0,2
Sa, 23.03. 13:00 1026 - 0,6
Sa, 23.03. 7:00 1030 + 0,3
Ortszeit Luftdruck NN (hPa) Tendenz (hPa in 3 Std.)
Mo, 25.03. 6:00 1022 - 0,3
Mo, 25.03. 5:50 1022 keine Meldung
Mo, 25.03. 5:40 1022 keine Meldung
Mo, 25.03. 5:30 1021 - 0,6
Mo, 25.03. 5:20 1021 keine Meldung
Mo, 25.03. 5:10 1021 keine Meldung
Mo, 25.03. 5:00 1021 - 0,8
Mo, 25.03. 4:30 1021 - 1,0
Mo, 25.03. 4:00 1021 - 1,1
Mo, 25.03. 3:30 1021 - 1,3
Mo, 25.03. 3:00 1021 - 1,4
Ortszeit Schneehöhe (cm)
Mo, 25.03. 1:00 0
So, 24.03. 19:00 0
So, 24.03. 13:00 0
So, 24.03. 7:00 0
So, 24.03. 1:00 0
Sa, 23.03. 19:00 0
Sa, 23.03. 13:00 0
Sa, 23.03. 7:00 0
Ortszeit Schneehöhe (cm)
Mo, 25.03. 6:00 0
Mo, 25.03. 5:50 0
Mo, 25.03. 5:40 0
Mo, 25.03. 5:30 0
Mo, 25.03. 5:20 0
Mo, 25.03. 5:10 0
Mo, 25.03. 5:00 0
Mo, 25.03. 4:30 0
Mo, 25.03. 4:00 0
Mo, 25.03. 3:30 0
Mo, 25.03. 3:00 0
Link zu dieser Seite / Seite empfehlen

Das Wetter in ...